createdAt,value
2022-11-15T00:00:52.534Z,100204.69
2022-11-15T00:03:20.926Z,100211.19
2022-11-15T00:05:47.692Z,100210.28
2022-11-15T00:08:14.281Z,100203.53
2022-11-15T00:10:40.828Z,100202.88
2022-11-15T00:13:11.882Z,100204.88
2022-11-15T00:15:41.984Z,100206.69
2022-11-15T00:18:13.777Z,100197.47
2022-11-15T00:20:40.452Z,100201.72
2022-11-15T00:23:07.947Z,100194.81
2022-11-15T00:25:34.343Z,100194.59
2022-11-15T00:28:01.167Z,100200.66
2022-11-15T00:30:28.046Z,100195.28
2022-11-15T00:32:54.845Z,100192.59
2022-11-15T00:35:21.508Z,100203.13
2022-11-15T00:37:48.557Z,100195.94
2022-11-15T00:40:15.653Z,100183.59
2022-11-15T00:42:42.717Z,100189.53
2022-11-15T00:45:09.920Z,100179.44
2022-11-15T00:47:36.321Z,100186.28
2022-11-15T00:50:02.849Z,100181.44
2022-11-15T00:52:29.232Z,100183.03
2022-11-15T00:54:55.597Z,100186.06
2022-11-15T00:57:21.962Z,100183.81
2022-11-15T00:59:48.325Z,100188.28
2022-11-15T01:02:14.705Z,100183.16
2022-11-15T01:04:41.054Z,100176.81
2022-11-15T01:07:07.495Z,100167.75
2022-11-15T01:09:33.911Z,100177.38
2022-11-15T01:12:00.388Z,100171.88
2022-11-15T01:14:26.906Z,100180.06
2022-11-15T01:16:53.302Z,100176.00
2022-11-15T01:19:19.672Z,100170.63
2022-11-15T01:21:46.062Z,100171.13
2022-11-15T01:24:14.994Z,100167.78
2022-11-15T01:26:41.401Z,100169.41
2022-11-15T01:29:07.830Z,100168.59
2022-11-15T01:31:34.216Z,100164.66
2022-11-15T01:34:00.604Z,100165.84
2022-11-15T01:36:27.016Z,100170.44
2022-11-15T01:38:55.561Z,100164.16
2022-11-15T01:41:24.436Z,100157.31
2022-11-15T01:43:54.327Z,100161.66
2022-11-15T01:46:31.021Z,100157.38
2022-11-15T01:48:59.060Z,100154.81
2022-11-15T01:51:26.699Z,100148.88
2022-11-15T01:53:56.323Z,100143.50
2022-11-15T01:56:25.483Z,100139.63
2022-11-15T01:58:53.595Z,100136.75
2022-11-15T02:01:20.505Z,100132.13
2022-11-15T02:03:53.458Z,100133.22
2022-11-15T02:06:20.216Z,100131.28
2022-11-15T02:08:46.605Z,100128.75
2022-11-15T02:11:12.980Z,100129.19
2022-11-15T02:13:39.454Z,100126.19
2022-11-15T02:16:14.724Z,100119.94
2022-11-15T02:18:47.654Z,100112.81
2022-11-15T02:21:35.091Z,100117.13
2022-11-15T02:24:16.029Z,100111.00
2022-11-15T02:27:15.027Z,100118.63
2022-11-15T02:30:01.554Z,100108.34
2022-11-15T02:32:31.355Z,100110.75
2022-11-15T02:35:14.778Z,100113.44
2022-11-15T02:37:49.147Z,100104.88
2022-11-15T02:40:28.610Z,100110.06
2022-11-15T02:43:16.631Z,100112.09
2022-11-15T02:45:48.819Z,100106.94
2022-11-15T02:48:15.165Z,100099.56
2022-11-15T02:50:41.592Z,100106.22
2022-11-15T02:53:09.535Z,100099.81
2022-11-15T02:55:42.408Z,100100.50
2022-11-15T02:58:27.390Z,100101.38
2022-11-15T03:01:01.701Z,100098.34
2022-11-15T03:03:39.523Z,100098.97
2022-11-15T03:06:22.265Z,100105.28
2022-11-15T03:09:00.919Z,100096.88
2022-11-15T03:11:28.390Z,100089.94
2022-11-15T03:14:00.409Z,100097.59
2022-11-15T03:16:50.077Z,100095.00
2022-11-15T03:19:25.160Z,100092.31
2022-11-15T03:21:52.142Z,100100.09
2022-11-15T03:24:25.668Z,100106.91
2022-11-15T03:26:54.493Z,100104.16
2022-11-15T03:29:24.062Z,100104.00
2022-11-15T03:31:55.774Z,100109.81
2022-11-15T03:34:42.612Z,100108.41
2022-11-15T03:37:09.515Z,100110.81
2022-11-15T03:39:35.938Z,100114.38
2022-11-15T03:42:12.535Z,100109.19
2022-11-15T03:44:48.211Z,100103.66
2022-11-15T03:47:29.315Z,100112.06
2022-11-15T03:50:11.977Z,100114.66
2022-11-15T03:52:38.340Z,100108.94
2022-11-15T03:55:06.016Z,100107.22
2022-11-15T03:57:32.473Z,100104.53
2022-11-15T03:59:58.855Z,100096.75
2022-11-15T04:02:25.300Z,100096.69
2022-11-15T04:04:51.719Z,100102.22
2022-11-15T04:07:18.209Z,100090.09
2022-11-15T04:10:02.989Z,100079.72
2022-11-15T04:12:41.558Z,100078.28
2022-11-15T04:15:13.462Z,100080.44
2022-11-15T04:17:48.263Z,100075.78
2022-11-15T04:20:43.029Z,100078.63
2022-11-15T04:23:38.913Z,100077.22
2022-11-15T04:26:08.055Z,100083.41
2022-11-15T04:28:34.603Z,100076.50
2022-11-15T04:31:00.968Z,100075.78
2022-11-15T04:33:27.342Z,100068.34
2022-11-15T04:36:12.039Z,100080.19
2022-11-15T04:38:38.408Z,100075.44
2022-11-15T04:41:04.901Z,100081.69
2022-11-15T04:43:31.758Z,100077.94
2022-11-15T04:45:58.459Z,100083.13
2022-11-15T04:48:24.908Z,100089.59
2022-11-15T04:50:51.287Z,100086.59
2022-11-15T04:53:17.661Z,100074.03
2022-11-15T04:55:47.200Z,100079.38
2022-11-15T04:58:13.762Z,100084.22
2022-11-15T05:00:40.881Z,100076.63
2022-11-15T05:03:26.092Z,100078.34
2022-11-15T05:05:52.445Z,100078.41
2022-11-15T05:08:18.827Z,100069.91
2022-11-15T05:10:45.629Z,100067.41
2022-11-15T05:13:12.062Z,100085.97
2022-11-15T05:15:38.458Z,100076.31
2022-11-15T05:18:04.895Z,100071.50
2022-11-15T05:20:33.806Z,100075.81
2022-11-15T05:23:00.357Z,100075.06
2022-11-15T05:25:27.112Z,100069.53
2022-11-15T05:27:53.951Z,100068.28
2022-11-15T05:30:20.402Z,100059.50
2022-11-15T05:32:46.803Z,100058.56
2022-11-15T05:35:19.574Z,100063.06
2022-11-15T05:37:47.365Z,100065.84
2022-11-15T05:40:13.746Z,100057.09
2022-11-15T05:42:40.216Z,100066.22
2022-11-15T05:45:07.458Z,100056.09
2022-11-15T05:47:35.479Z,100060.31
2022-11-15T05:50:01.895Z,100057.38
2022-11-15T05:52:32.055Z,100058.59
2022-11-15T05:54:59.005Z,100050.91
2022-11-15T05:57:25.420Z,100046.34
2022-11-15T05:59:52.114Z,100046.81
2022-11-15T06:02:18.535Z,100048.63
2022-11-15T06:04:44.928Z,100043.69
2022-11-15T06:07:11.342Z,100042.16
2022-11-15T06:09:37.810Z,100043.47
2022-11-15T06:12:04.443Z,100045.91
2022-11-15T06:14:30.958Z,100049.63
2022-11-15T06:16:57.419Z,100055.03
2022-11-15T06:19:23.774Z,100051.25
2022-11-15T06:21:50.133Z,100058.53
2022-11-15T06:24:16.507Z,100066.03
2022-11-15T06:26:42.861Z,100068.91
2022-11-15T06:29:09.272Z,100075.41
2022-11-15T06:31:35.704Z,100074.47
2022-11-15T06:34:02.066Z,100068.44
2022-11-15T06:36:28.458Z,100075.59
2022-11-15T06:38:54.811Z,100077.22
2022-11-15T06:41:22.173Z,100081.59
2022-11-15T06:43:48.530Z,100079.41
2022-11-15T06:46:15.145Z,100080.78
2022-11-15T06:48:41.511Z,100085.53
2022-11-15T06:51:08.989Z,100084.53
2022-11-15T06:53:35.733Z,100093.19
2022-11-15T06:56:04.207Z,100082.56
2022-11-15T06:58:30.811Z,100086.31
2022-11-15T07:01:07.071Z,100092.88
2022-11-15T07:03:35.886Z,100097.34
2022-11-15T07:06:07.106Z,100089.19
2022-11-15T07:08:34.916Z,100103.72
2022-11-15T07:11:03.806Z,100106.19
2022-11-15T07:13:34.325Z,100103.50
2022-11-15T07:16:09.171Z,100104.31
2022-11-15T07:18:36.794Z,100107.19
2022-11-15T07:21:04.752Z,100111.38
2022-11-15T07:23:31.566Z,100111.81
2022-11-15T07:26:01.350Z,100113.22
2022-11-15T07:28:28.177Z,100114.22
2022-11-15T07:30:55.083Z,100120.63
2022-11-15T07:33:21.578Z,100121.44
2022-11-15T07:35:50.996Z,100115.44
2022-11-15T07:38:21.415Z,100118.69
2022-11-15T07:40:48.327Z,100117.03
2022-11-15T07:43:14.718Z,100122.34
2022-11-15T07:45:45.340Z,100122.44
2022-11-15T07:48:11.899Z,100119.13
2022-11-15T07:50:41.671Z,100126.50
2022-11-15T07:53:09.531Z,100126.16
2022-11-15T07:55:36.100Z,100117.56
2022-11-15T07:58:07.377Z,100125.75
2022-11-15T08:00:34.213Z,100135.84
2022-11-15T08:03:14.607Z,100130.66
2022-11-15T08:05:42.406Z,100131.47
2022-11-15T08:08:10.343Z,100125.31
2022-11-15T08:10:40.579Z,100123.59
2022-11-15T08:13:10.282Z,100136.97
2022-11-15T08:15:37.422Z,100133.72
2022-11-15T08:18:06.275Z,100129.88
2022-11-15T08:20:33.237Z,100128.34
2022-11-15T08:23:01.285Z,100123.69
2022-11-15T08:25:28.737Z,100120.16
2022-11-15T08:27:56.738Z,100121.13
2022-11-15T08:30:23.947Z,100117.41
2022-11-15T08:32:51.168Z,100125.84
2022-11-15T08:35:18.004Z,100117.56
2022-11-15T08:37:44.402Z,100112.22
2022-11-15T08:40:11.231Z,100116.50
2022-11-15T08:42:37.838Z,100118.72
2022-11-15T08:45:04.815Z,100118.81
2022-11-15T08:47:31.484Z,100116.13
2022-11-15T08:49:57.845Z,100126.59
2022-11-15T08:52:24.329Z,100120.19
2022-11-15T08:54:50.682Z,100120.59
2022-11-15T08:57:17.088Z,100122.63
2022-11-15T08:59:43.518Z,100122.81
2022-11-15T09:02:15.043Z,100120.53
2022-11-15T09:04:44.915Z,100115.88
2022-11-15T09:07:12.157Z,100109.25
2022-11-15T09:09:38.936Z,100109.97
2022-11-15T09:12:06.818Z,100117.97
2022-11-15T09:14:33.241Z,100110.47
2022-11-15T09:17:00.056Z,100110.81
2022-11-15T09:19:26.794Z,100102.25
2022-11-15T09:21:53.465Z,100102.59
2022-11-15T09:24:19.946Z,100101.72
2022-11-15T09:26:46.345Z,100104.38
2022-11-15T09:29:12.773Z,100097.31
2022-11-15T09:31:39.157Z,100101.88
2022-11-15T09:34:05.961Z,100096.09
2022-11-15T09:36:32.382Z,100089.53
2022-11-15T09:38:59.284Z,100097.50
2022-11-15T09:41:49.458Z,100092.63
2022-11-15T09:44:28.017Z,100099.50
2022-11-15T09:47:20.712Z,100089.75
2022-11-15T09:49:50.797Z,100089.47
2022-11-15T09:52:20.794Z,100089.38
2022-11-15T09:54:54.414Z,100088.22
2022-11-15T09:57:34.157Z,100089.53
2022-11-15T10:00:12.249Z,100083.84
2022-11-15T10:03:12.206Z,100098.78
2022-11-15T10:05:41.711Z,100096.53
2022-11-15T10:08:30.050Z,100087.75
2022-11-15T10:14:19.435Z,100089.19
2022-11-15T10:17:18.920Z,100067.53
2022-11-15T10:20:02.415Z,100076.19
2022-11-15T10:22:44.908Z,100068.22
2022-11-15T10:25:23.600Z,100063.75
2022-11-15T10:27:59.117Z,100048.72
2022-11-15T10:30:35.225Z,100043.88
2022-11-15T10:33:12.316Z,100040.06
2022-11-15T10:35:38.992Z,100038.00
2022-11-15T10:38:07.704Z,100020.09
2022-11-15T10:40:34.946Z,100032.25
2022-11-15T10:43:10.361Z,100025.19
2022-11-15T10:45:37.448Z,100023.50
2022-11-15T10:48:12.971Z,100018.88
2022-11-15T10:50:46.566Z,100015.97
2022-11-15T10:53:32.878Z,100013.06
2022-11-15T10:56:04.057Z,100005.66
2022-11-15T10:58:45.378Z,100001.78
2022-11-15T11:01:14.894Z,100000.09
2022-11-15T11:03:43.332Z,100002.09
2022-11-15T11:06:17.906Z,99998.63
2022-11-15T11:09:05.798Z,99993.47
2022-11-15T11:11:49.812Z,99996.66
2022-11-15T11:14:28.621Z,99995.84
2022-11-15T11:16:56.310Z,99995.78
2022-11-15T11:19:35.808Z,99981.97
2022-11-15T11:22:15.015Z,99984.63
2022-11-15T11:25:02.678Z,99985.16
2022-11-15T11:27:49.285Z,99984.69
2022-11-15T11:30:22.827Z,99982.13
2022-11-15T11:33:04.573Z,99976.00
2022-11-15T11:35:54.704Z,99970.47
2022-11-15T11:38:43.647Z,99959.38
2022-11-15T11:41:19.103Z,99962.16
2022-11-15T11:43:55.773Z,99955.59
2022-11-15T11:46:49.597Z,99950.53
2022-11-15T11:49:54.520Z,99940.88
2022-11-15T11:52:44.250Z,99943.53
2022-11-15T11:55:28.706Z,99940.75
2022-11-15T11:58:13.802Z,99942.66
2022-11-15T12:00:44.668Z,99925.53
2022-11-15T12:03:35.828Z,99930.56
2022-11-15T12:06:06.107Z,99920.69
2022-11-15T12:08:59.189Z,99911.16
2022-11-15T12:11:50.724Z,99916.31
2022-11-15T12:14:27.505Z,99908.47
2022-11-15T12:16:53.921Z,99901.53
2022-11-15T12:19:20.285Z,99914.03
2022-11-15T12:21:57.559Z,99913.00
2022-11-15T12:24:42.752Z,99910.47
2022-11-15T12:27:26.476Z,99901.31
2022-11-15T12:29:55.254Z,99910.75
2022-11-15T12:32:34.580Z,99900.81
2022-11-15T12:35:02.536Z,99917.78
2022-11-15T12:37:44.091Z,99910.28
2022-11-15T12:40:10.648Z,99914.25
2022-11-15T12:42:42.817Z,99905.66
2022-11-15T12:45:32.368Z,99908.94
2022-11-15T12:48:24.579Z,99891.19
2022-11-15T12:50:56.611Z,99896.97
2022-11-15T12:53:26.097Z,99896.41
2022-11-15T12:56:19.085Z,99894.78
2022-11-15T12:58:56.199Z,99889.56
2022-11-15T13:01:31.703Z,99884.47
2022-11-15T13:04:20.086Z,99882.69
2022-11-15T13:06:47.663Z,99869.00
2022-11-15T13:09:37.230Z,99862.06
2022-11-15T13:12:05.507Z,99859.91
2022-11-15T13:14:37.968Z,99853.03
2022-11-15T13:17:34.771Z,99859.78
2022-11-15T13:20:12.588Z,99848.66
2022-11-15T13:23:00.353Z,99835.31
2022-11-15T13:25:53.934Z,99831.59
2022-11-15T13:28:42.122Z,99831.06
2022-11-15T13:31:25.651Z,99827.09
2022-11-15T13:33:52.807Z,99823.69
2022-11-15T13:36:25.842Z,99815.69
2022-11-15T13:39:05.474Z,99815.56
2022-11-15T13:41:36.573Z,99810.78
2022-11-15T13:44:04.514Z,99804.66
2022-11-15T13:46:33.533Z,99805.94
2022-11-15T13:49:05.332Z,99805.41
2022-11-15T13:51:34.601Z,99805.47
2022-11-15T13:54:07.889Z,99801.69
2022-11-15T13:56:35.002Z,99799.78
2022-11-15T13:59:09.964Z,99805.09
2022-11-15T14:01:36.476Z,99792.97
2022-11-15T14:04:04.097Z,99795.09
2022-11-15T14:06:31.511Z,99791.34
2022-11-15T14:09:10.019Z,99787.81
2022-11-15T14:11:36.514Z,99780.75
2022-11-15T14:14:09.058Z,99783.66
2022-11-15T14:16:37.802Z,99778.53
2022-11-15T14:19:05.922Z,99776.88
2022-11-15T14:21:32.508Z,99772.56
2022-11-15T14:24:18.455Z,99777.09
2022-11-15T14:26:45.460Z,99777.91
2022-11-15T14:29:28.988Z,99775.56
2022-11-15T14:32:13.312Z,99766.28
2022-11-15T14:34:39.758Z,99764.59
2022-11-15T14:37:06.110Z,99753.78
2022-11-15T14:39:32.475Z,99741.41
2022-11-15T14:41:58.840Z,99743.13
2022-11-15T14:44:25.218Z,99736.41
2022-11-15T14:46:51.589Z,99738.19
2022-11-15T14:49:17.973Z,99729.53
2022-11-15T14:51:44.323Z,99723.72
2022-11-15T14:54:11.523Z,99719.97
2022-11-15T14:56:37.870Z,99707.38
2022-11-15T14:59:04.244Z,99706.63
2022-11-15T15:01:30.696Z,99704.66
2022-11-15T15:03:57.970Z,99698.50
2022-11-15T15:06:24.354Z,99694.03
2022-11-15T15:08:51.884Z,99690.81
2022-11-15T15:11:29.314Z,99685.59
2022-11-15T15:13:57.953Z,99679.13
2022-11-15T15:16:24.964Z,99679.53
2022-11-15T15:18:51.556Z,99675.97
2022-11-15T15:21:23.823Z,99673.16
2022-11-15T15:23:50.389Z,99671.97
2022-11-15T15:26:16.824Z,99667.97
2022-11-15T15:28:43.351Z,99668.53
2022-11-15T15:31:10.971Z,99664.25
2022-11-15T15:33:38.052Z,99671.34
2022-11-15T15:36:04.539Z,99657.97
2022-11-15T15:38:31.435Z,99657.53
2022-11-15T15:40:58.176Z,99661.44
2022-11-15T15:43:24.543Z,99662.06
2022-11-15T15:45:50.938Z,99657.13
2022-11-15T15:48:18.000Z,99656.22
2022-11-15T15:50:44.555Z,99649.63
2022-11-15T15:53:11.913Z,99646.63
2022-11-15T15:55:38.399Z,99642.09
2022-11-15T15:58:05.815Z,99641.41
2022-11-15T16:00:33.930Z,99639.34
2022-11-15T16:03:00.312Z,99632.03
2022-11-15T16:05:26.693Z,99628.41
2022-11-15T16:07:53.066Z,99629.50
2022-11-15T16:10:30.925Z,99624.31
2022-11-15T16:12:58.147Z,99620.53
2022-11-15T16:15:26.629Z,99620.25
2022-11-15T16:18:00.733Z,99618.56
2022-11-15T16:20:33.052Z,99611.31
2022-11-15T16:23:04.332Z,99621.38
2022-11-15T16:25:39.628Z,99611.81
2022-11-15T16:28:06.216Z,99604.59
2022-11-15T16:30:32.600Z,99608.66
2022-11-15T16:32:59.054Z,99607.38
2022-11-15T16:35:25.559Z,99601.63
2022-11-15T16:37:51.993Z,99599.28
2022-11-15T16:40:24.935Z,99596.47
2022-11-15T16:42:51.405Z,99589.59
2022-11-15T16:45:17.838Z,99587.56
2022-11-15T16:47:44.188Z,99587.56
2022-11-15T16:50:25.815Z,99580.44
2022-11-15T16:52:57.035Z,99593.63
2022-11-15T16:55:28.340Z,99583.38
2022-11-15T16:57:55.625Z,99579.84
2022-11-15T17:00:22.154Z,99587.00
2022-11-15T17:02:50.352Z,99590.06
2022-11-15T17:05:20.194Z,99590.53
2022-11-15T17:07:52.258Z,99589.03
2022-11-15T17:10:18.687Z,99582.38
2022-11-15T17:12:45.195Z,99581.94
2022-11-15T17:15:12.961Z,99580.00
2022-11-15T17:17:40.331Z,99580.59
2022-11-15T17:20:09.953Z,99576.00
2022-11-15T17:22:37.327Z,99575.34
2022-11-15T17:25:04.569Z,99571.13
2022-11-15T17:27:31.421Z,99573.41
2022-11-15T17:29:57.887Z,99562.59
2022-11-15T17:32:24.261Z,99560.34
2022-11-15T17:34:50.791Z,99562.81
2022-11-15T17:37:17.248Z,99556.88
2022-11-15T17:39:43.653Z,99556.88
2022-11-15T17:42:10.105Z,99552.34
2022-11-15T17:44:36.465Z,99556.72
2022-11-15T17:47:02.935Z,99557.88
2022-11-15T17:49:29.296Z,99552.25
2022-11-15T17:51:55.666Z,99552.06
2022-11-15T17:54:22.074Z,99553.31
2022-11-15T17:56:48.501Z,99560.75
2022-11-15T17:59:20.151Z,99559.63
2022-11-15T18:01:47.878Z,99563.56
2022-11-15T18:04:15.243Z,99557.03
2022-11-15T18:06:42.037Z,99557.47
2022-11-15T18:09:08.770Z,99556.19
2022-11-15T18:11:41.262Z,99543.03
2022-11-15T18:14:12.622Z,99546.88
2022-11-15T18:16:40.175Z,99548.25
2022-11-15T18:19:13.190Z,99542.13
2022-11-15T18:21:57.065Z,99545.81
2022-11-15T18:24:24.888Z,99541.50
2022-11-15T18:26:51.494Z,99530.69
2022-11-15T18:29:18.275Z,99528.50
2022-11-15T18:31:47.656Z,99540.13
2022-11-15T18:34:14.350Z,99532.66
2022-11-15T18:36:41.222Z,99529.25
2022-11-15T18:39:07.647Z,99529.06
2022-11-15T18:41:34.546Z,99527.69
2022-11-15T18:44:02.011Z,99519.13
2022-11-15T18:46:31.185Z,99520.34
2022-11-15T18:48:59.331Z,99520.34
2022-11-15T18:51:26.998Z,99513.81
2022-11-15T18:53:54.829Z,99501.56
2022-11-15T18:56:22.868Z,99509.56
2022-11-15T18:58:51.343Z,99509.78
2022-11-15T19:01:20.128Z,99511.00
2022-11-15T19:03:49.446Z,99506.72
2022-11-15T19:06:17.887Z,99512.44
2022-11-15T19:08:46.093Z,99511.94
2022-11-15T19:11:14.879Z,99502.72
2022-11-15T19:13:41.482Z,99507.41
2022-11-15T19:16:08.123Z,99505.97
2022-11-15T19:18:34.501Z,99500.78
2022-11-15T19:21:05.908Z,99500.25
2022-11-15T19:23:36.633Z,99493.59
2022-11-15T19:26:04.708Z,99488.81
2022-11-15T19:28:31.751Z,99493.81
2022-11-15T19:31:11.439Z,99483.34
2022-11-15T19:33:38.187Z,99482.59
2022-11-15T19:36:09.787Z,99481.63
2022-11-15T19:38:36.188Z,99484.72
2022-11-15T19:41:05.328Z,99479.19
2022-11-15T19:43:32.589Z,99477.00
2022-11-15T19:46:02.660Z,99469.53
2022-11-15T19:48:33.191Z,99464.00
2022-11-15T19:51:07.425Z,99459.19
2022-11-15T19:53:35.383Z,99464.00
2022-11-15T19:56:04.303Z,99464.75
2022-11-15T19:58:31.259Z,99455.38
2022-11-15T20:01:38.706Z,99465.66
2022-11-15T20:04:05.693Z,99470.84
2022-11-15T20:06:35.719Z,99458.38
2022-11-15T20:09:02.508Z,99453.59
2022-11-15T20:11:28.934Z,99457.66
2022-11-15T20:13:59.306Z,99454.19
2022-11-15T20:16:25.770Z,99452.66
2022-11-15T20:18:53.103Z,99450.06
2022-11-15T20:21:20.206Z,99452.66
2022-11-15T20:23:47.738Z,99454.53
2022-11-15T20:26:15.099Z,99440.59
2022-11-15T20:28:41.540Z,99447.75
2022-11-15T20:31:09.487Z,99454.88
2022-11-15T20:33:35.974Z,99445.63
2022-11-15T20:36:06.929Z,99452.38
2022-11-15T20:38:34.653Z,99443.38
2022-11-15T20:41:01.388Z,99441.75
2022-11-15T20:43:27.768Z,99432.06
2022-11-15T20:45:54.160Z,99427.84
2022-11-15T20:48:20.633Z,99428.09
2022-11-15T20:50:47.212Z,99429.25
2022-11-15T20:53:15.841Z,99433.69
2022-11-15T20:55:44.319Z,99424.53
2022-11-15T20:58:11.014Z,99424.78
2022-11-15T21:00:38.003Z,99413.25
2022-11-15T21:03:08.176Z,99419.75
2022-11-15T21:05:37.190Z,99412.31
2022-11-15T21:08:03.606Z,99413.41
2022-11-15T21:10:48.608Z,99414.69
2022-11-15T21:13:14.996Z,99414.63
2022-11-15T21:15:41.377Z,99407.59
2022-11-15T21:18:08.060Z,99403.03
2022-11-15T21:20:34.489Z,99395.28
2022-11-15T21:23:00.903Z,99396.38
2022-11-15T21:25:27.327Z,99399.31
2022-11-15T21:27:53.691Z,99394.34
2022-11-15T21:30:20.228Z,99391.56
2022-11-15T21:32:46.561Z,99388.97
2022-11-15T21:35:14.172Z,99383.44
2022-11-15T21:37:40.807Z,99389.72
2022-11-15T21:40:08.186Z,99390.97
2022-11-15T21:42:34.574Z,99387.25
2022-11-15T21:45:01.011Z,99386.94
2022-11-15T21:47:27.382Z,99387.28
2022-11-15T21:49:53.820Z,99386.31
2022-11-15T21:52:20.196Z,99369.75
2022-11-15T21:54:46.616Z,99367.56
2022-11-15T21:57:12.974Z,99365.38
2022-11-15T21:59:59.317Z,99359.41
2022-11-15T22:02:25.813Z,99368.22
2022-11-15T22:04:52.204Z,99365.84
2022-11-15T22:07:18.662Z,99359.66
2022-11-15T22:09:45.134Z,99359.72
2022-11-15T22:12:11.527Z,99357.88
2022-11-15T22:14:37.896Z,99360.97
2022-11-15T22:17:04.384Z,99358.72
2022-11-15T22:19:30.761Z,99358.41
2022-11-15T22:21:57.136Z,99359.94
2022-11-15T22:24:23.728Z,99363.72
2022-11-15T22:26:50.826Z,99355.44
2022-11-15T22:29:17.215Z,99353.31
2022-11-15T22:31:43.611Z,99351.81
2022-11-15T22:34:10.279Z,99349.03
2022-11-15T22:36:58.345Z,99339.47
2022-11-15T22:39:23.236Z,99333.81
2022-11-15T22:41:49.600Z,99333.69
2022-11-15T22:44:15.982Z,99330.28
2022-11-15T22:46:42.354Z,99333.59
2022-11-15T22:49:09.202Z,99337.00
2022-11-15T22:51:35.658Z,99328.16
2022-11-15T22:54:02.311Z,99331.09
2022-11-15T22:56:28.693Z,99331.22
2022-11-15T22:58:55.095Z,99331.22
2022-11-15T23:01:22.064Z,99328.09
2022-11-15T23:03:48.723Z,99328.25
2022-11-15T23:06:15.143Z,99318.44
2022-11-15T23:08:41.753Z,99317.31
2022-11-15T23:11:29.018Z,99317.69
2022-11-15T23:13:56.320Z,99323.03
2022-11-15T23:16:23.454Z,99320.69
2022-11-15T23:18:51.723Z,99313.72
2022-11-15T23:21:47.733Z,99311.13
2022-11-15T23:24:14.795Z,99308.66
2022-11-15T23:26:41.974Z,99311.88
2022-11-15T23:29:10.172Z,99309.50
2022-11-15T23:32:01.595Z,99314.19
2022-11-15T23:34:33.076Z,99316.06
2022-11-15T23:36:59.713Z,99309.75
2022-11-15T23:39:26.380Z,99312.28
2022-11-15T23:41:52.763Z,99314.44
2022-11-15T23:44:19.145Z,99313.97
2022-11-15T23:46:45.733Z,99319.69
2022-11-15T23:49:12.102Z,99311.09
2022-11-15T23:51:38.553Z,99303.84
2022-11-15T23:54:05.097Z,99309.78
2022-11-15T23:56:31.602Z,99298.81
2022-11-15T23:58:58.303Z,99305.63
